createdAt,value
2023-04-15T00:00:59.861Z,101031.23
2023-04-15T00:03:30.013Z,101038.59
2023-04-15T00:05:58.793Z,101036.37
2023-04-15T00:08:27.605Z,101035.42
2023-04-15T00:10:56.163Z,101032.55
2023-04-15T00:13:24.335Z,101033.70
2023-04-15T00:15:52.749Z,101034.11
2023-04-15T00:18:21.096Z,101032.64
2023-04-15T00:20:49.229Z,101034.11
2023-04-15T00:23:18.159Z,101031.17
2023-04-15T00:25:47.149Z,101030.97
2023-04-15T00:28:15.531Z,101018.04
2023-04-15T00:30:44.900Z,101026.91
2023-04-15T00:33:14.069Z,101024.89
2023-04-15T00:35:42.441Z,101023.67
2023-04-15T00:38:11.267Z,101019.83
2023-04-15T00:40:39.690Z,101020.94
2023-04-15T00:43:07.808Z,101014.39
2023-04-15T00:45:36.026Z,101013.39
2023-04-15T00:48:05.896Z,101016.20
2023-04-15T00:50:34.398Z,101011.91
2023-04-15T00:53:02.689Z,101017.84
2023-04-15T00:55:30.804Z,101012.02
2023-04-15T00:57:59.013Z,101012.95
2023-04-15T01:00:27.557Z,101013.37
2023-04-15T01:02:55.948Z,101014.02
2023-04-15T01:05:25.173Z,101010.63
2023-04-15T01:07:53.461Z,101012.05
2023-04-15T01:10:22.285Z,101012.67
2023-04-15T01:12:50.447Z,101015.46
2023-04-15T01:15:18.680Z,101016.69
2023-04-15T01:17:47.278Z,101010.64
2023-04-15T01:20:16.904Z,101013.91
2023-04-15T01:22:45.681Z,101015.83
2023-04-15T01:25:20.510Z,101010.53
2023-04-15T01:27:48.660Z,101015.42
2023-04-15T01:30:17.716Z,101015.05
2023-04-15T01:32:46.154Z,101012.85
2023-04-15T01:35:14.345Z,101011.98
2023-04-15T01:37:42.818Z,101010.84
2023-04-15T01:40:11.404Z,101007.52
2023-04-15T01:42:39.694Z,101007.59
2023-04-15T01:45:08.502Z,101003.03
2023-04-15T01:47:39.472Z,101006.18
2023-04-15T01:50:08.668Z,101008.10
2023-04-15T01:52:36.785Z,101007.73
2023-04-15T01:55:06.391Z,101000.43
2023-04-15T01:57:34.630Z,101001.61
2023-04-15T02:00:04.677Z,101005.50
2023-04-15T02:02:41.674Z,101003.33
2023-04-15T02:05:10.032Z,101004.08
2023-04-15T02:07:38.556Z,101008.44
2023-04-15T02:10:06.965Z,101011.97
2023-04-15T02:12:37.121Z,101012.23
2023-04-15T02:15:06.078Z,101008.27
2023-04-15T02:17:37.724Z,101008.27
2023-04-15T02:20:06.506Z,101007.13
2023-04-15T02:22:35.157Z,101009.46
2023-04-15T02:25:03.483Z,101004.17
2023-04-15T02:27:33.415Z,101003.86
2023-04-15T02:30:01.853Z,101008.48
2023-04-15T02:32:30.283Z,100999.77
2023-04-15T02:35:03.152Z,101007.09
2023-04-15T02:37:32.680Z,100979.82
2023-04-15T02:40:01.604Z,101002.27
2023-04-15T02:42:30.508Z,101005.77
2023-04-15T02:45:01.545Z,101009.42
2023-04-15T02:47:32.568Z,101009.98
2023-04-15T02:50:01.897Z,101010.59
2023-04-15T02:52:30.299Z,100994.15
2023-04-15T02:55:00.901Z,101008.23
2023-04-15T02:57:29.704Z,101005.40
2023-04-15T02:59:59.185Z,101005.23
2023-04-15T03:02:27.562Z,101005.98
2023-04-15T03:04:55.849Z,101007.73
2023-04-15T03:07:24.147Z,101009.90
2023-04-15T03:09:52.674Z,101010.42
2023-04-15T03:12:21.154Z,101009.29
2023-04-15T03:14:49.577Z,101003.85
2023-04-15T03:17:18.255Z,101010.55
2023-04-15T03:19:46.561Z,101012.77
2023-04-15T03:22:14.829Z,101012.60
2023-04-15T03:24:43.195Z,101015.36
2023-04-15T03:27:13.313Z,101014.71
2023-04-15T03:29:41.518Z,101015.29
2023-04-15T03:32:09.762Z,101015.48
2023-04-15T03:34:37.897Z,101018.04
2023-04-15T03:37:06.072Z,101014.31
2023-04-15T03:39:34.601Z,101020.55
2023-04-15T03:42:03.595Z,101016.36
2023-04-15T03:44:32.027Z,101018.80
2023-04-15T03:47:00.322Z,101012.34
2023-04-15T03:49:28.729Z,101015.01
2023-04-15T03:51:57.618Z,101014.71
2023-04-15T03:54:25.791Z,101017.65
2023-04-15T03:56:53.901Z,101016.48
2023-04-15T03:59:22.144Z,101019.70
2023-04-15T04:01:51.101Z,101018.69
2023-04-15T04:04:19.456Z,101021.55
2023-04-15T04:06:47.748Z,101025.11
2023-04-15T04:09:15.930Z,101026.23
2023-04-15T04:11:45.651Z,101027.33
2023-04-15T04:14:13.736Z,101029.32
2023-04-15T04:16:42.217Z,101031.64
2023-04-15T04:19:10.538Z,101029.23
2023-04-15T04:21:39.781Z,101031.39
2023-04-15T04:24:07.967Z,101031.27
2023-04-15T04:26:36.081Z,101028.36
2023-04-15T04:29:04.300Z,101035.33
2023-04-15T04:31:32.543Z,101039.68
2023-04-15T04:34:01.154Z,101039.11
2023-04-15T04:36:29.338Z,101024.14
2023-04-15T04:38:57.498Z,101029.27
2023-04-15T04:41:25.660Z,101040.90
2023-04-15T04:43:53.789Z,101040.83
2023-04-15T04:46:22.029Z,101044.83
2023-04-15T04:48:50.402Z,101039.80
2023-04-15T04:51:18.547Z,101043.45
2023-04-15T04:53:46.832Z,101040.98
2023-04-15T04:56:14.945Z,101044.60
2023-04-15T04:58:43.011Z,101043.62
2023-04-15T05:01:11.297Z,101046.20
2023-04-15T05:03:39.689Z,101049.50
2023-04-15T05:06:08.945Z,101048.02
2023-04-15T05:08:39.169Z,101047.56
2023-04-15T05:11:09.127Z,101049.32
2023-04-15T05:13:38.839Z,101053.59
2023-04-15T05:16:07.888Z,101052.02
2023-04-15T05:18:36.839Z,101053.58
2023-04-15T05:21:05.289Z,101052.52
2023-04-15T05:23:34.039Z,101046.67
2023-04-15T05:26:02.443Z,101035.86
2023-04-15T05:28:31.059Z,101050.55
2023-04-15T05:30:59.294Z,101035.66
2023-04-15T05:33:27.676Z,101050.32
2023-04-15T05:35:55.825Z,101051.17
2023-04-15T05:38:24.093Z,101043.42
2023-04-15T05:40:52.206Z,101050.49
2023-04-15T05:43:21.065Z,101057.44
2023-04-15T05:45:49.417Z,101060.59
2023-04-15T05:48:17.591Z,101058.77
2023-04-15T05:50:45.800Z,101056.88
2023-04-15T05:53:13.906Z,101061.67
2023-04-15T05:55:41.977Z,101066.40
2023-04-15T05:58:10.100Z,101062.41
2023-04-15T06:00:38.771Z,101042.06
2023-04-15T06:03:08.083Z,101049.40
2023-04-15T06:05:36.355Z,101057.72
2023-04-15T06:08:04.845Z,101061.42
2023-04-15T06:10:36.816Z,101052.94
2023-04-15T06:13:05.267Z,101052.70
2023-04-15T06:15:33.560Z,101053.86
2023-04-15T06:18:02.125Z,101054.57
2023-04-15T06:20:30.494Z,101056.95
2023-04-15T06:22:58.630Z,101054.04
2023-04-15T06:25:26.781Z,101060.14
2023-04-15T06:27:54.967Z,101064.57
2023-04-15T06:30:24.432Z,101067.36
2023-04-15T06:32:52.837Z,101064.30
2023-04-15T06:35:21.512Z,101049.29
2023-04-15T06:37:49.751Z,101060.41
2023-04-15T06:40:17.990Z,101064.88
2023-04-15T06:42:46.171Z,101060.14
2023-04-15T06:45:14.505Z,101066.30
2023-04-15T06:47:43.759Z,101065.45
2023-04-15T06:50:11.987Z,101068.34
2023-04-15T06:52:40.290Z,101070.15
2023-04-15T06:55:08.862Z,101071.64
2023-04-15T06:57:37.037Z,101058.94
2023-04-15T07:00:05.915Z,101076.11
2023-04-15T07:02:34.251Z,101076.19
2023-04-15T07:05:02.895Z,101075.66
2023-04-15T07:07:31.285Z,101080.08
2023-04-15T07:10:00.342Z,101080.98
2023-04-15T07:12:28.497Z,101080.45
2023-04-15T07:14:58.315Z,101087.91
2023-04-15T07:17:26.656Z,101087.80
2023-04-15T07:19:54.681Z,101094.18
2023-04-15T07:22:22.847Z,101090.67
2023-04-15T07:24:50.955Z,101087.52
2023-04-15T07:27:19.060Z,101089.71
2023-04-15T07:29:47.404Z,101084.46
2023-04-15T07:32:15.524Z,101085.86
2023-04-15T07:34:44.475Z,101091.59
2023-04-15T07:37:12.805Z,101088.21
2023-04-15T07:39:40.943Z,101090.30
2023-04-15T07:42:09.034Z,101091.73
2023-04-15T07:44:37.237Z,101088.32
2023-04-15T07:47:05.553Z,101099.89
2023-04-15T07:49:33.643Z,101101.09
2023-04-15T07:52:01.803Z,101103.27
2023-04-15T07:54:29.903Z,101100.60
2023-04-15T07:56:58.210Z,101109.42
2023-04-15T07:59:27.782Z,101107.05
2023-04-15T08:01:55.932Z,101104.04
2023-04-15T08:04:24.141Z,101105.84
2023-04-15T08:06:53.106Z,101105.69
2023-04-15T08:09:21.730Z,101105.48
2023-04-15T08:11:50.985Z,101104.15
2023-04-15T08:14:19.214Z,101104.89
2023-04-15T08:16:50.309Z,101109.80
2023-04-15T08:19:18.439Z,101108.00
2023-04-15T08:21:47.026Z,101112.52
2023-04-15T08:24:15.812Z,101115.06
2023-04-15T08:26:43.969Z,101105.36
2023-04-15T08:29:12.333Z,101115.23
2023-04-15T08:31:40.637Z,101117.14
2023-04-15T08:34:09.413Z,101114.82
2023-04-15T08:36:37.479Z,101113.36
2023-04-15T08:39:05.884Z,101117.37
2023-04-15T08:41:48.382Z,101114.98
2023-04-15T08:44:17.987Z,101115.46
2023-04-15T08:46:46.607Z,101120.44
2023-04-15T08:49:18.182Z,101118.89
2023-04-15T08:51:46.647Z,101121.93
2023-04-15T08:54:14.973Z,101121.14
2023-04-15T08:56:43.383Z,101123.13
2023-04-15T08:59:12.585Z,101124.70
2023-04-15T09:01:41.831Z,101121.63
2023-04-15T09:04:12.648Z,101110.66
2023-04-15T09:06:41.623Z,101106.08
2023-04-15T09:09:09.864Z,101107.81
2023-04-15T09:11:38.000Z,101109.20
2023-04-15T09:14:06.502Z,101110.35
2023-04-15T09:16:57.778Z,101107.37
2023-04-15T09:19:26.652Z,101105.48
2023-04-15T09:21:59.562Z,101116.63
2023-04-15T09:24:37.624Z,101113.52
2023-04-15T09:27:06.663Z,101108.79
2023-04-15T09:29:35.023Z,101111.01
2023-04-15T09:32:11.635Z,101115.40
2023-04-15T09:34:40.026Z,101101.36
2023-04-15T09:37:10.992Z,101115.83
2023-04-15T09:39:52.829Z,101117.67
2023-04-15T09:42:24.684Z,101120.10
2023-04-15T09:44:53.269Z,101121.81
2023-04-15T09:47:31.701Z,101123.20
2023-04-15T09:50:01.375Z,101126.36
2023-04-15T09:52:30.355Z,101129.57
2023-04-15T09:55:00.182Z,101121.45
2023-04-15T09:57:36.675Z,101133.98
2023-04-15T10:00:08.177Z,101140.23
2023-04-15T10:02:38.209Z,101143.02
2023-04-15T10:05:07.493Z,101139.11
2023-04-15T10:07:36.052Z,101139.77
2023-04-15T10:10:05.598Z,101145.24
2023-04-15T10:12:33.942Z,101141.77
2023-04-15T10:15:05.265Z,101147.11
2023-04-15T10:17:45.850Z,101145.79
2023-04-15T10:20:15.275Z,101141.53
2023-04-15T10:22:45.537Z,101154.08
2023-04-15T10:25:15.856Z,101150.76
2023-04-15T10:27:44.330Z,101152.95
2023-04-15T10:30:12.826Z,101153.61
2023-04-15T10:32:42.113Z,101154.74
2023-04-15T10:35:11.360Z,101156.48
2023-04-15T10:37:39.732Z,101152.36
2023-04-15T10:40:34.884Z,101152.10
2023-04-15T10:43:03.552Z,101153.46
2023-04-15T10:45:39.769Z,101150.83
2023-04-15T10:48:09.279Z,101149.77
2023-04-15T10:50:37.927Z,101146.65
2023-04-15T10:53:06.180Z,101137.77
2023-04-15T10:55:34.875Z,101134.19
2023-04-15T10:58:03.413Z,101126.03
2023-04-15T11:00:33.048Z,101132.38
2023-04-15T11:03:11.186Z,101139.07
2023-04-15T11:05:42.620Z,101140.22
2023-04-15T11:08:12.063Z,101143.58
2023-04-15T11:10:40.458Z,101143.87
2023-04-15T11:13:11.814Z,101141.87
2023-04-15T11:15:41.917Z,101143.02
2023-04-15T11:18:12.830Z,101145.61
2023-04-15T11:20:43.043Z,101144.78
2023-04-15T11:23:14.326Z,101151.42
2023-04-15T11:25:44.429Z,101153.02
2023-04-15T11:28:13.390Z,101155.48
2023-04-15T11:30:43.315Z,101159.36
2023-04-15T11:33:12.727Z,101149.80
2023-04-15T11:35:44.289Z,101157.65
2023-04-15T11:38:16.727Z,101163.39
2023-04-15T11:40:47.043Z,101164.06
2023-04-15T11:43:21.237Z,101167.57
2023-04-15T11:45:55.257Z,101173.14
2023-04-15T11:48:34.992Z,101177.48
2023-04-15T11:51:05.611Z,101178.27
2023-04-15T11:53:46.169Z,101181.85
2023-04-15T11:56:19.890Z,101184.33
2023-04-15T11:58:49.946Z,101190.91
2023-04-15T12:01:18.872Z,101190.95
2023-04-15T12:03:49.637Z,101194.15
2023-04-15T12:06:25.350Z,101196.95
2023-04-15T12:09:01.513Z,101201.53
2023-04-15T12:11:35.464Z,101202.52
2023-04-15T12:14:04.079Z,101204.83
2023-04-15T12:16:37.031Z,101209.42
2023-04-15T12:19:29.821Z,101214.71
2023-04-15T12:22:03.533Z,101214.80
2023-04-15T12:24:32.415Z,101214.41
2023-04-15T12:27:08.621Z,101216.84
2023-04-15T12:29:38.899Z,101217.27
2023-04-15T12:32:15.644Z,101220.21
2023-04-15T12:34:44.796Z,101224.02
2023-04-15T12:37:16.345Z,101224.27
2023-04-15T12:39:46.248Z,101209.28
2023-04-15T12:42:15.810Z,101225.23
2023-04-15T12:44:44.055Z,101223.14
2023-04-15T12:47:13.210Z,101223.55
2023-04-15T12:49:41.550Z,101228.80
2023-04-15T12:52:09.915Z,101232.73
2023-04-15T12:54:38.013Z,101218.79
2023-04-15T12:57:07.429Z,101230.80
2023-04-15T12:59:36.581Z,101234.20
2023-04-15T13:02:04.845Z,101233.47
2023-04-15T13:04:33.478Z,101237.06
2023-04-15T13:07:02.595Z,101241.48
2023-04-15T13:09:31.242Z,101240.71
2023-04-15T13:11:59.678Z,101244.86
2023-04-15T13:14:27.812Z,101240.10
2023-04-15T13:16:55.968Z,101236.40
2023-04-15T13:19:24.121Z,101240.82
2023-04-15T13:21:52.305Z,101238.68
2023-04-15T13:24:20.539Z,101243.05
2023-04-15T13:26:50.363Z,101239.58
2023-04-15T13:29:18.908Z,101240.09
2023-04-15T13:31:47.164Z,101242.95
2023-04-15T13:34:15.698Z,101241.23
2023-04-15T13:36:43.769Z,101244.41
2023-04-15T13:39:12.143Z,101245.34
2023-04-15T13:41:40.640Z,101243.39
2023-04-15T13:44:08.756Z,101238.34
2023-04-15T13:46:37.985Z,101242.63
2023-04-15T13:49:06.227Z,101237.05
2023-04-15T13:51:37.016Z,101245.64
2023-04-15T13:54:05.577Z,101243.34
2023-04-15T13:56:33.994Z,101242.70
2023-04-15T13:59:03.303Z,101244.99
2023-04-15T14:01:31.593Z,101247.82
2023-04-15T14:03:59.842Z,101250.50
2023-04-15T14:06:29.020Z,101249.03
2023-04-15T14:08:57.162Z,101254.86
2023-04-15T14:11:25.247Z,101251.63
2023-04-15T14:13:53.310Z,101254.25
2023-04-15T14:16:21.784Z,101258.79
2023-04-15T14:18:49.933Z,101259.33
2023-04-15T14:21:18.116Z,101264.88
2023-04-15T14:23:46.173Z,101267.83
2023-04-15T14:26:14.861Z,101271.95
2023-04-15T14:28:45.123Z,101273.55
2023-04-15T14:31:14.345Z,101276.02
2023-04-15T14:33:42.658Z,101276.67
2023-04-15T14:36:10.944Z,101281.18
2023-04-15T14:38:40.144Z,101282.73
2023-04-15T14:41:08.904Z,101287.83
2023-04-15T14:43:37.093Z,101287.50
2023-04-15T14:46:05.587Z,101293.45
2023-04-15T14:48:33.894Z,101287.67
2023-04-15T14:51:02.282Z,101293.15
2023-04-15T14:53:30.490Z,101300.05
2023-04-15T14:55:58.793Z,101292.01
2023-04-15T14:58:27.296Z,101304.30
2023-04-15T15:00:55.606Z,101307.29
2023-04-15T15:03:23.942Z,101312.08
2023-04-15T15:05:52.331Z,101309.58
2023-04-15T15:08:20.764Z,101317.36
2023-04-15T15:10:49.908Z,101316.50
2023-04-15T15:13:19.335Z,101312.48
2023-04-15T15:15:49.865Z,101323.36
2023-04-15T15:18:19.620Z,101325.90
2023-04-15T15:20:48.093Z,101314.52
2023-04-15T15:23:16.303Z,101326.86
2023-04-15T15:25:44.739Z,101334.28
2023-04-15T15:28:13.137Z,101335.79
2023-04-15T15:30:41.334Z,101335.27
2023-04-15T15:33:09.502Z,101335.42
2023-04-15T15:35:37.628Z,101342.39
2023-04-15T15:38:06.451Z,101345.26
2023-04-15T15:40:34.606Z,101332.84
2023-04-15T15:43:03.045Z,101349.92
2023-04-15T15:45:31.435Z,101354.66
2023-04-15T15:48:00.305Z,101340.98
2023-04-15T15:50:28.627Z,101354.81
2023-04-15T15:52:58.738Z,101357.04
2023-04-15T15:55:27.407Z,101362.73
2023-04-15T15:57:55.667Z,101362.14
2023-04-15T16:00:23.878Z,101353.95
2023-04-15T16:03:06.601Z,101369.27
2023-04-15T16:05:36.276Z,101360.20
2023-04-15T16:08:04.918Z,101366.02
2023-04-15T16:10:33.495Z,101375.52
2023-04-15T16:13:02.215Z,101376.20
2023-04-15T16:15:30.567Z,101380.20
2023-04-15T16:17:58.807Z,101373.09
2023-04-15T16:20:28.490Z,101385.70
2023-04-15T16:22:58.406Z,101391.20
2023-04-15T16:25:26.749Z,101390.21
2023-04-15T16:28:05.578Z,101393.02
2023-04-15T16:30:41.395Z,101400.41
2023-04-15T16:33:09.957Z,101399.90
2023-04-15T16:35:38.062Z,101405.14
2023-04-15T16:38:06.657Z,101403.33
2023-04-15T16:40:35.110Z,101413.58
2023-04-15T16:43:03.735Z,101411.67
2023-04-15T16:45:31.829Z,101415.54
2023-04-15T16:47:59.930Z,101416.52
2023-04-15T16:50:28.097Z,101418.77
2023-04-15T16:52:56.225Z,101423.45
2023-04-15T16:55:24.363Z,101426.92
2023-04-15T16:58:02.695Z,101424.20
2023-04-15T17:00:32.093Z,101428.52
2023-04-15T17:03:00.972Z,101430.70
2023-04-15T17:05:30.988Z,101430.09
2023-04-15T17:07:59.477Z,101426.21
2023-04-15T17:10:28.145Z,101433.20
2023-04-15T17:12:57.331Z,101438.21
2023-04-15T17:15:26.228Z,101441.45
2023-04-15T17:17:54.650Z,101444.02
2023-04-15T17:20:23.002Z,101445.05
2023-04-15T17:22:51.104Z,101446.17
2023-04-15T17:25:19.551Z,101448.50
2023-04-15T17:27:47.752Z,101457.60
2023-04-15T17:30:16.309Z,101457.73
2023-04-15T17:32:44.474Z,101462.86
2023-04-15T17:35:12.751Z,101465.17
2023-04-15T17:37:41.042Z,101464.90
2023-04-15T17:40:09.689Z,101467.33
2023-04-15T17:42:37.883Z,101467.07
2023-04-15T17:45:06.625Z,101473.77
2023-04-15T17:47:34.838Z,101479.99
2023-04-15T17:50:02.998Z,101481.56
2023-04-15T17:52:31.177Z,101481.03
2023-04-15T17:54:59.535Z,101483.54
2023-04-15T17:57:27.621Z,101487.06
2023-04-15T17:59:55.910Z,101492.83
2023-04-15T18:02:24.571Z,101497.80
2023-04-15T18:04:53.152Z,101495.76
2023-04-15T18:07:21.354Z,101504.02
2023-04-15T18:09:50.840Z,101503.39
2023-04-15T18:12:18.965Z,101507.36
2023-04-15T18:14:47.108Z,101510.79
2023-04-15T18:17:15.449Z,101513.96
2023-04-15T18:19:43.679Z,101512.30
2023-04-15T18:22:12.355Z,101519.98
2023-04-15T18:24:40.795Z,101522.73
2023-04-15T18:27:09.036Z,101523.77
2023-04-15T18:29:37.264Z,101521.90
2023-04-15T18:32:05.631Z,101523.75
2023-04-15T18:34:33.799Z,101524.46
2023-04-15T18:37:02.206Z,101527.17
2023-04-15T18:39:30.998Z,101530.45
2023-04-15T18:41:59.117Z,101530.80
2023-04-15T18:44:28.475Z,101534.58
2023-04-15T18:46:56.757Z,101537.19
2023-04-15T18:49:25.922Z,101533.84
2023-04-15T18:51:54.229Z,101537.18
2023-04-15T18:54:22.476Z,101539.14
2023-04-15T18:56:51.782Z,101530.73
2023-04-15T18:59:29.042Z,101516.03
2023-04-15T19:02:00.255Z,101542.05
2023-04-15T19:04:31.033Z,101546.26
2023-04-15T19:06:59.356Z,101548.98
2023-04-15T19:09:28.952Z,101553.21
2023-04-15T19:11:57.868Z,101553.41
2023-04-15T19:14:26.074Z,101557.30
2023-04-15T19:16:54.307Z,101562.39
2023-04-15T19:19:22.734Z,101564.96
2023-04-15T19:21:51.394Z,101567.19
2023-04-15T19:24:19.981Z,101565.61
2023-04-15T19:26:50.781Z,101569.19
2023-04-15T19:29:19.092Z,101568.81
2023-04-15T19:31:47.205Z,101570.81
2023-04-15T19:34:15.472Z,101572.25
2023-04-15T19:36:43.640Z,101570.86
2023-04-15T19:39:12.107Z,101572.73
2023-04-15T19:41:40.243Z,101571.52
2023-04-15T19:44:08.522Z,101573.94
2023-04-15T19:46:36.802Z,101577.84
2023-04-15T19:49:05.460Z,101581.27
2023-04-15T19:51:33.789Z,101580.95
2023-04-15T19:54:01.864Z,101582.96
2023-04-15T19:56:31.240Z,101582.83
2023-04-15T19:59:02.017Z,101580.08
2023-04-15T20:01:30.361Z,101580.94
2023-04-15T20:03:59.160Z,101580.05
2023-04-15T20:06:27.788Z,101582.84
2023-04-15T20:08:56.467Z,101579.55
2023-04-15T20:12:10.040Z,101576.74
2023-04-15T20:14:17.914Z,101578.00
2023-04-15T20:16:46.132Z,101580.27
2023-04-15T20:19:14.779Z,101580.30
2023-04-15T20:21:42.970Z,101579.88
2023-04-15T20:24:11.261Z,101578.70
2023-04-15T20:26:39.432Z,101579.41
2023-04-15T20:29:07.925Z,101575.48
2023-04-15T20:31:36.547Z,101572.95
2023-04-15T20:34:04.721Z,101577.20
2023-04-15T20:36:33.408Z,101574.78
2023-04-15T20:39:01.668Z,101572.08
2023-04-15T20:41:29.987Z,101575.48
2023-04-15T20:43:58.111Z,101573.10
2023-04-15T20:46:27.820Z,101568.16
2023-04-15T20:48:56.238Z,101570.59
2023-04-15T20:51:24.412Z,101565.63
2023-04-15T20:53:52.490Z,101567.35
2023-04-15T20:56:20.885Z,101565.31
2023-04-15T20:58:49.018Z,101566.75
2023-04-15T21:01:17.201Z,101570.75
2023-04-15T21:03:45.474Z,101574.58
2023-04-15T21:06:13.983Z,101576.58
2023-04-15T21:08:42.106Z,101579.67
2023-04-15T21:11:10.352Z,101578.97
2023-04-15T21:13:38.543Z,101580.77
2023-04-15T21:16:06.668Z,101581.73
2023-04-15T21:18:34.893Z,101586.77
2023-04-15T21:21:03.626Z,101592.42
2023-04-15T21:23:31.909Z,101595.81
2023-04-15T21:26:00.172Z,101597.16
2023-04-15T21:28:30.021Z,101598.41
2023-04-15T21:30:58.274Z,101605.46
2023-04-15T21:33:27.279Z,101612.82
2023-04-15T21:35:55.692Z,101612.67
2023-04-15T21:38:24.012Z,101616.35
2023-04-15T21:40:52.284Z,101618.66
2023-04-15T21:43:22.976Z,101622.63
2023-04-15T21:46:21.480Z,101625.67
2023-04-15T21:48:39.953Z,101624.58
2023-04-15T21:51:08.144Z,101627.17
2023-04-15T21:53:36.322Z,101625.03
2023-04-15T21:56:04.693Z,101628.04
2023-04-15T21:58:32.951Z,101629.79
2023-04-15T22:01:01.344Z,101630.83
2023-04-15T22:03:33.483Z,101632.45
2023-04-15T22:06:05.066Z,101634.13
2023-04-15T22:08:38.538Z,101623.41
2023-04-15T22:11:10.511Z,101635.33
2023-04-15T22:13:38.553Z,101626.40
2023-04-15T22:16:06.648Z,101637.88
2023-04-15T22:18:34.840Z,101642.86
2023-04-15T22:21:03.113Z,101644.04
2023-04-15T22:23:31.186Z,101647.66
2023-04-15T22:25:59.918Z,101651.33
2023-04-15T22:28:28.054Z,101655.88
2023-04-15T22:30:58.161Z,101657.38
2023-04-15T22:33:26.318Z,101655.63
2023-04-15T22:35:54.492Z,101654.56
2023-04-15T22:38:22.834Z,101657.05
2023-04-15T22:40:53.959Z,101658.53
2023-04-15T22:43:22.717Z,101661.08
2023-04-15T22:45:51.540Z,101662.77
2023-04-15T22:48:19.671Z,101664.93
2023-04-15T22:50:47.996Z,101662.80
2023-04-15T22:53:17.382Z,101665.55
2023-04-15T22:55:47.149Z,101661.41
2023-04-15T22:58:17.257Z,101658.45
2023-04-15T23:00:45.762Z,101656.35
2023-04-15T23:03:14.124Z,101656.70
2023-04-15T23:05:45.114Z,101659.63
2023-04-15T23:08:13.219Z,101655.52
2023-04-15T23:10:41.372Z,101657.74
2023-04-15T23:13:09.475Z,101658.48
2023-04-15T23:15:37.588Z,101655.27
2023-04-15T23:18:05.900Z,101645.50
2023-04-15T23:20:34.268Z,101657.27
2023-04-15T23:23:02.313Z,101653.41
2023-04-15T23:25:30.397Z,101657.17
2023-04-15T23:27:58.593Z,101660.16
2023-04-15T23:30:26.861Z,101664.95
2023-04-15T23:32:55.203Z,101660.00
2023-04-15T23:35:23.979Z,101663.45
2023-04-15T23:37:52.113Z,101665.20
2023-04-15T23:40:20.369Z,101664.85
2023-04-15T23:42:48.540Z,101664.25
2023-04-15T23:45:16.680Z,101663.16
2023-04-15T23:47:44.850Z,101665.22
2023-04-15T23:50:13.066Z,101665.75
2023-04-15T23:52:41.181Z,101663.84
2023-04-15T23:55:09.832Z,101662.98
2023-04-15T23:57:37.979Z,101660.60
